Time;durP1;ratioP1;P1;durP2;ratioP2;P2;SDS_P1;SDS_P2;PMS_P1;PMS_P2;Temp;Humidity;BMP_temperature;BMP_pressure;BME280_temperature;BME280_humidity;BME280_pressure;Samples;Min_cycle;Max_cycle;Signal;HPM_P1;HPM_P2
2022/11/29 00:01:34;;;;;;;16.33;9.10;;;-2.70;99.90;;;;;;4995628;28;20296;-78
2022/11/29 00:04:01;;;;;;;11.60;8.50;;;-2.60;99.90;;;;;;4995054;28;20100;-79
2022/11/29 00:06:30;;;;;;;15.83;10.20;;;-2.60;99.90;;;;;;4995318;28;20064;-78
2022/11/29 00:09:01;;;;;;;13.75;9.77;;;-2.70;99.90;;;;;;4995330;28;20022;-77
2022/11/29 00:14:19;;;;;;;10.35;7.72;;;-2.80;99.90;;;;;;4992467;28;20041;-76
2022/11/29 00:16:50;;;;;;;12.85;9.10;;;-2.80;99.90;;;;;;4995289;28;20029;-77
2022/11/29 00:19:16;;;;;;;9.55;7.22;;;-2.80;99.90;;;;;;4994954;28;20033;-77
2022/11/29 00:21:42;;;;;;;14.75;10.15;;;-2.90;99.90;;;;;;4995269;28;20026;-79
2022/11/29 00:24:08;;;;;;;18.30;10.68;;;-2.90;99.90;;;;;;4995650;28;20038;-78
2022/11/29 00:26:36;;;;;;;14.20;9.50;;;-3.00;99.90;;;;;;4996084;28;20019;-77
2022/11/29 00:29:02;;;;;;;14.85;9.85;;;-3.00;99.90;;;;;;4995167;28;20117;-79
2022/11/29 00:31:30;;;;;;;11.20;8.00;;;-3.00;99.90;;;;;;4995299;28;20502;-78
2022/11/29 00:33:57;;;;;;;15.00;8.77;;;-3.00;99.90;;;;;;4994862;28;20035;-76
2022/11/29 00:36:23;;;;;;;11.88;9.13;;;-3.00;99.90;;;;;;4994890;28;20411;-79
2022/11/29 00:38:49;;;;;;;10.95;8.18;;;-2.90;99.90;;;;;;4994630;28;20435;-78
2022/11/29 00:41:15;;;;;;;12.40;9.32;;;-3.00;99.90;;;;;;4995335;28;20125;-77
2022/11/29 00:43:41;;;;;;;12.95;8.32;;;-3.00;99.90;;;;;;4993600;28;20034;-79
2022/11/29 00:46:08;;;;;;;13.63;8.55;;;-3.10;99.90;;;;;;5006992;28;20144;-77
2022/11/29 00:48:34;;;;;;;11.73;7.53;;;-3.10;99.90;;;;;;4997983;28;20482;-78
2022/11/29 00:51:00;;;;;;;12.38;8.73;;;-3.20;99.90;;;;;;4996849;28;20026;-77
2022/11/29 00:53:26;;;;;;;13.80;8.93;;;-3.10;99.90;;;;;;5001210;28;20117;-79
2022/11/29 00:55:53;;;;;;;11.30;8.63;;;-3.10;99.90;;;;;;4995528;28;20022;-77
2022/11/29 00:58:19;;;;;;;12.27;8.40;;;-3.10;99.90;;;;;;4994676;28;20493;-77
2022/11/29 01:00:46;;;;;;;15.38;9.55;;;-3.00;99.90;;;;;;4994498;28;20014;-77
2022/11/29 01:03:13;;;;;;;10.77;6.93;;;-3.00;99.90;;;;;;4994880;28;20034;-78
2022/11/29 01:05:39;;;;;;;14.30;9.40;;;-2.90;99.90;;;;;;4993967;28;20018;-77
2022/11/29 01:08:05;;;;;;;13.65;8.20;;;-2.90;99.90;;;;;;4972491;28;20046;-79
2022/11/29 01:10:31;;;;;;;18.75;9.75;;;-2.90;99.90;;;;;;4972823;28;20531;-78
2022/11/29 01:12:57;;;;;;;16.27;10.80;;;-2.80;99.90;;;;;;4972839;28;20085;-77
2022/11/29 01:15:23;;;;;;;14.30;8.55;;;-2.80;99.90;;;;;;4976414;28;20023;-77
2022/11/29 01:17:49;;;;;;;12.13;9.48;;;-2.80;99.90;;;;;;4972660;28;20369;-78
2022/11/29 01:20:15;;;;;;;13.60;9.25;;;-3.00;99.90;;;;;;4972467;28;20594;-77
2022/11/29 01:22:42;;;;;;;17.23;9.50;;;-3.00;99.90;;;;;;4972606;28;20043;-77
2022/11/29 01:25:09;;;;;;;14.43;9.23;;;-3.00;99.90;;;;;;4972102;28;20496;-78
2022/11/29 01:27:35;;;;;;;13.80;10.73;;;-3.00;99.90;;;;;;4972154;28;20396;-77
2022/11/29 01:30:02;;;;;;;15.23;10.32;;;-2.90;99.90;;;;;;4971629;28;20019;-78
2022/11/29 01:32:28;;;;;;;15.07;10.63;;;-2.90;99.90;;;;;;4971913;28;20082;-79
2022/11/29 01:34:54;;;;;;;17.25;10.57;;;-2.80;99.90;;;;;;4972031;28;20038;-78
2022/11/29 01:37:20;;;;;;;12.43;9.68;;;-2.80;99.90;;;;;;4971993;28;20030;-76
2022/11/29 01:39:45;;;;;;;17.92;12.23;;;-2.80;99.90;;;;;;4988904;28;20034;-78
2022/11/29 01:42:12;;;;;;;22.60;13.00;;;-2.90;99.90;;;;;;4993399;28;20026;-77
2022/11/29 01:44:38;;;;;;;21.20;12.43;;;-2.90;99.90;;;;;;4993500;28;20029;-78
2022/11/29 01:47:04;;;;;;;22.00;12.30;;;-2.90;99.80;;;;;;4993371;28;20022;-79
2022/11/29 01:49:36;;;;;;;16.73;11.73;;;-3.00;99.70;;;;;;4993928;28;20448;-79
2022/11/29 01:52:10;;;;;;;22.13;13.23;;;-3.10;99.30;;;;;;4985259;28;20472;-78
2022/11/29 01:54:43;;;;;;;24.02;13.05;;;-3.30;99.50;;;;;;4991261;28;20038;-78
2022/11/29 01:57:10;;;;;;;23.30;12.73;;;-3.30;99.90;;;;;;4993242;28;20026;-77
2022/11/29 01:59:39;;;;;;;17.45;11.43;;;-3.30;99.90;;;;;;4993267;28;20584;-79
2022/11/29 02:02:12;;;;;;;18.60;11.73;;;-3.30;99.90;;;;;;4993172;28;20080;-78
2022/11/29 02:04:40;;;;;;;17.48;12.82;;;-3.20;99.90;;;;;;4993038;28;20030;-77
2022/11/29 02:07:06;;;;;;;19.17;12.23;;;-3.20;99.90;;;;;;4993132;28;20395;-78
2022/11/29 02:09:32;;;;;;;17.35;11.50;;;-3.10;99.90;;;;;;4992935;28;20023;-78
2022/11/29 02:12:24;;;;;;;17.77;11.95;;;-3.10;99.90;;;;;;4990074;28;20037;-78
2022/11/29 02:15:12;;;;;;;19.92;10.52;;;-3.10;99.90;;;;;;4991688;28;20026;-80
2022/11/29 02:18:06;;;;;;;19.13;12.10;;;-3.10;99.90;;;;;;4992480;28;20034;-78
2022/11/29 02:20:56;;;;;;;20.75;13.07;;;-3.10;99.90;;;;;;4985682;28;20090;-78
2022/11/29 02:23:40;;;;;;;17.13;11.50;;;-3.10;99.90;;;;;;4992737;28;20040;-78
2022/11/29 02:26:23;;;;;;;17.45;12.93;;;-3.10;99.90;;;;;;4991417;28;20042;-79
2022/11/29 02:29:11;;;;;;;19.70;12.35;;;-3.20;99.80;;;;;;4992848;28;20388;-78
2022/11/29 02:32:15;;;;;;;19.08;13.40;;;-3.20;99.70;;;;;;4993634;28;20102;-79
2022/11/29 02:34:59;;;;;;;18.85;12.55;;;-3.20;99.60;;;;;;4992811;28;20035;-77
2022/11/29 02:37:46;;;;;;;17.05;12.35;;;-3.30;99.50;;;;;;4983015;28;20026;-78
2022/11/29 02:40:30;;;;;;;22.67;14.27;;;-3.20;99.60;;;;;;4994577;28;20057;-78
2022/11/29 02:43:16;;;;;;;21.25;11.52;;;-3.20;99.60;;;;;;5003335;28;20046;-80
2022/11/29 02:45:50;;;;;;;21.70;14.60;;;-3.30;99.30;;;;;;4999726;28;20106;-79
2022/11/29 02:48:32;;;;;;;22.13;14.23;;;-3.30;99.20;;;;;;4997592;28;20058;-78
2022/11/29 02:51:16;;;;;;;21.33;12.52;;;-3.40;99.10;;;;;;4993191;28;20391;-77
2022/11/29 02:54:05;;;;;;;21.83;13.02;;;-3.50;99.10;;;;;;4992529;28;20097;-77
2022/11/29 02:56:45;;;;;;;22.05;13.25;;;-3.50;99.30;;;;;;4993212;28;20575;-78
2022/11/29 02:59:19;;;;;;;20.42;14.15;;;-3.50;99.50;;;;;;4991970;28;20097;-78
2022/11/29 03:02:21;;;;;;;22.45;13.10;;;-3.50;99.50;;;;;;4993041;28;20054;-77
2022/11/29 03:05:11;;;;;;;20.83;12.05;;;-3.40;99.60;;;;;;4985907;28;20030;-79
2022/11/29 03:07:45;;;;;;;13.82;10.50;;;-3.40;99.50;;;;;;4992144;28;20026;-77
2022/11/29 03:10:47;;;;;;;18.17;13.38;;;-3.40;99.60;;;;;;4992391;28;20022;-78
2022/11/29 03:13:38;;;;;;;23.70;13.18;;;-3.50;99.20;;;;;;4983326;28;20058;-77
2022/11/29 03:16:25;;;;;;;24.95;14.75;;;-3.70;99.10;;;;;;4988039;28;20507;-77
2022/11/29 03:19:06;;;;;;;16.17;12.60;;;-3.70;99.40;;;;;;4992373;28;20100;-77
2022/11/29 03:21:54;;;;;;;18.42;11.68;;;-3.60;99.40;;;;;;4991871;28;20691;-80
2022/11/29 03:24:30;;;;;;;19.88;12.20;;;-3.60;99.50;;;;;;4990744;28;20054;-79
2022/11/29 03:27:08;;;;;;;17.90;11.00;;;-3.60;99.60;;;;;;4986339;28;20015;-79
2022/11/29 03:29:50;;;;;;;18.08;11.52;;;-3.50;99.60;;;;;;4990898;28;20467;-78
2022/11/29 03:32:46;;;;;;;16.65;9.68;;;-3.60;99.30;;;;;;4994275;28;20109;-79
2022/11/29 03:35:33;;;;;;;15.85;10.30;;;-3.70;99.00;;;;;;4995715;28;20487;-80
2022/11/29 03:38:25;;;;;;;15.68;10.32;;;-3.80;99.30;;;;;;4995911;28;20026;-78
2022/11/29 03:40:57;;;;;;;18.25;10.80;;;-3.80;99.30;;;;;;4978307;28;20095;-80
2022/11/29 03:43:40;;;;;;;14.68;10.15;;;-3.80;99.30;;;;;;4995930;28;20054;-79
2022/11/29 03:46:11;;;;;;;17.27;9.55;;;-3.70;99.20;;;;;;4984591;28;20024;-78
2022/11/29 03:48:45;;;;;;;11.85;8.70;;;-3.70;99.10;;;;;;4995360;28;20066;-78
2022/11/29 03:51:38;;;;;;;13.00;9.43;;;-3.70;99.00;;;;;;4984878;28;20621;-79
2022/11/29 03:54:12;;;;;;;14.32;9.05;;;-3.70;98.90;;;;;;4995401;28;20033;-79
2022/11/29 03:56:39;;;;;;;14.05;8.85;;;-3.70;98.80;;;;;;4995539;28;20026;-78
2022/11/29 03:59:43;;;;;;;11.73;7.82;;;-3.70;98.70;;;;;;4995340;28;20026;-81
2022/11/29 04:02:17;;;;;;;18.02;10.27;;;-3.70;98.40;;;;;;4995482;28;20026;-77
2022/11/29 04:05:02;;;;;;;14.90;9.50;;;-3.80;98.20;;;;;;4986843;28;20125;-80
2022/11/29 04:07:46;;;;;;;15.05;9.02;;;-3.80;98.30;;;;;;4995406;28;20030;-79
2022/11/29 04:10:38;;;;;;;14.43;9.77;;;-3.80;98.30;;;;;;4992807;28;20483;-79
2022/11/29 04:13:33;;;;;;;14.05;9.45;;;-3.90;98.10;;;;;;4993966;28;20035;-80
2022/11/29 04:16:49;;;;;;;19.40;11.73;;;-3.90;98.00;;;;;;4989767;28;20018;-79
2022/11/29 04:19:30;;;;;;;20.55;11.98;;;-3.90;97.90;;;;;;4987558;28;20488;-78
2022/11/29 04:22:11;;;;;;;15.00;10.10;;;-4.00;97.90;;;;;;4990589;28;20033;-79
2022/11/29 04:24:55;;;;;;;19.48;11.93;;;-4.00;97.90;;;;;;4977387;28;20419;-77
2022/11/29 04:27:33;;;;;;;17.42;11.63;;;-4.00;97.80;;;;;;4995906;28;20045;-79
2022/11/29 04:30:24;;;;;;;19.92;12.35;;;-4.00;97.80;;;;;;4999007;28;20022;-78
2022/11/29 04:33:12;;;;;;;18.35;11.30;;;-4.00;97.80;;;;;;4997081;28;20444;-78
2022/11/29 04:35:58;;;;;;;20.42;12.00;;;-4.10;97.60;;;;;;4994021;28;20019;-78
2022/11/29 04:38:43;;;;;;;20.08;12.13;;;-4.10;97.90;;;;;;4990838;28;20046;-79
2022/11/29 04:41:18;;;;;;;21.27;12.65;;;-4.10;98.00;;;;;;4984292;28;20373;-79
2022/11/29 04:43:52;;;;;;;18.92;11.77;;;-4.10;97.90;;;;;;4994355;28;20057;-79
2022/11/29 04:46:50;;;;;;;20.30;10.77;;;-4.00;97.90;;;;;;4995232;28;20034;-79
2022/11/29 04:49:40;;;;;;;19.25;10.98;;;-4.00;97.70;;;;;;4966709;28;20030;-79
2022/11/29 04:52:14;;;;;;;22.10;12.15;;;-4.20;97.50;;;;;;4999640;28;20019;-78
2022/11/29 04:55:05;;;;;;;17.88;11.73;;;-4.20;97.50;;;;;;4988023;28;20054;-79
2022/11/29 04:57:49;;;;;;;16.50;9.50;;;-4.30;97.50;;;;;;4994159;28;20105;-78
2022/11/29 05:00:19;;;;;;;17.95;11.40;;;-4.30;97.60;;;;;;4994414;28;20559;-79
2022/11/29 05:02:56;;;;;;;18.83;10.30;;;-4.30;97.70;;;;;;4994256;28;20101;-80
2022/11/29 05:05:40;;;;;;;17.55;11.40;;;-4.20;97.70;;;;;;4988448;28;20022;-79
2022/11/29 05:08:37;;;;;;;21.15;13.75;;;-4.30;97.40;;;;;;4993542;28;20033;-79
2022/11/29 05:11:26;;;;;;;27.55;12.10;;;-4.30;97.70;;;;;;4984295;28;20027;-79
2022/11/29 05:13:55;;;;;;;17.90;11.90;;;-4.30;97.60;;;;;;4988828;28;20124;-79
2022/11/29 05:16:44;;;;;;;20.95;13.18;;;-4.30;97.80;;;;;;4994150;28;20097;-80
2022/11/29 05:19:38;;;;;;;20.35;11.98;;;-4.20;97.90;;;;;;4993809;28;20022;-79
2022/11/29 05:22:07;;;;;;;21.60;14.88;;;-4.00;98.00;;;;;;4990143;28;20018;-81
2022/11/29 05:24:59;;;;;;;22.20;14.25;;;-4.00;97.90;;;;;;4992463;28;20053;-79
2022/11/29 05:28:09;;;;;;;23.20;15.18;;;-3.90;97.90;;;;;;4992408;28;20432;-78
2022/11/29 05:30:54;;;;;;;24.05;15.20;;;-3.90;97.90;;;;;;4973620;28;20042;-78
2022/11/29 05:33:25;;;;;;;22.42;14.00;;;-3.80;97.90;;;;;;4993828;28;20112;-78
2022/11/29 05:35:52;;;;;;;26.17;15.10;;;-3.80;98.20;;;;;;4992204;28;20019;-78
2022/11/29 05:38:18;;;;;;;20.10;13.82;;;-3.80;97.90;;;;;;4993632;28;20484;-80
2022/11/29 05:41:17;;;;;;;24.10;13.98;;;-3.80;97.80;;;;;;4993659;28;20022;-79
2022/11/29 05:44:03;;;;;;;26.80;14.80;;;-3.80;97.80;;;;;;4991928;28;20070;-78
2022/11/29 05:46:54;;;;;;;27.88;16.40;;;-3.80;97.70;;;;;;4984904;28;20018;-78
2022/11/29 05:49:28;;;;;;;19.70;13.98;;;-3.80;97.60;;;;;;4993499;28;20069;-79
2022/11/29 05:52:15;;;;;;;35.88;17.08;;;-3.80;97.70;;;;;;4993208;28;20026;-79
2022/11/29 05:54:48;;;;;;;;;;;-3.70;97.80;;;;;;4983696;28;20038;-77
2022/11/29 05:57:41;;;;;;;27.35;16.45;;;-3.70;97.60;;;;;;4992946;28;19905;-79
2022/11/29 06:00:10;;;;;;;28.58;17.70;;;-3.70;97.50;;;;;;4992866;28;20022;-79
2022/11/29 06:02:45;;;;;;;29.23;17.80;;;-3.70;97.50;;;;;;4995044;28;20388;-80
2022/11/29 06:05:49;;;;;;;29.77;19.42;;;-3.70;97.50;;;;;;4992727;28;20065;-81
2022/11/29 06:08:49;;;;;;;29.27;17.23;;;-3.80;97.20;;;;;;4981249;28;20173;-79
2022/11/29 06:11:35;;;;;;;27.65;19.90;;;-3.80;97.30;;;;;;4972736;28;20170;-78
2022/11/29 06:14:12;;;;;;;28.80;18.73;;;-3.80;97.30;;;;;;4986862;28;20034;-78
2022/11/29 06:17:02;;;;;;;44.17;21.33;;;-3.80;97.30;;;;;;4986467;28;20026;-78
2022/11/29 06:19:56;;;;;;;31.60;17.58;;;-3.70;97.40;;;;;;4988220;28;20037;-79
2022/11/29 06:22:30;;;;;;;28.02;17.17;;;-3.70;97.30;;;;;;4992923;28;20113;-79
2022/11/29 06:25:10;;;;;;;31.05;19.95;;;-3.70;97.30;;;;;;4993510;28;20038;-79
2022/11/29 06:28:11;;;;;;;32.03;16.75;;;-3.70;97.10;;;;;;4985583;28;20476;-80
2022/11/29 06:31:15;;;;;;;28.55;18.40;;;-3.80;96.90;;;;;;4993602;28;20026;-81
2022/11/29 06:33:41;;;;;;;23.92;17.75;;;-3.80;96.90;;;;;;4988899;28;20053;-78
2022/11/29 06:36:26;;;;;;;25.67;17.10;;;-3.80;96.90;;;;;;4996200;28;20022;-79
2022/11/29 06:38:53;;;;;;;26.80;17.15;;;-3.70;96.90;;;;;;4990492;28;20029;-78
2022/11/29 06:41:22;;;;;;;28.30;18.17;;;-3.70;96.80;;;;;;4991989;28;20380;-79
2022/11/29 06:43:49;;;;;;;23.38;18.05;;;-3.70;96.70;;;;;;4992642;28;20038;-79
2022/11/29 06:46:25;;;;;;;35.45;19.17;;;-3.70;96.60;;;;;;4991690;28;20022;-79
2022/11/29 06:49:08;;;;;;;30.73;17.50;;;-3.70;96.60;;;;;;4990128;28;20101;-80
2022/11/29 06:51:50;;;;;;;29.83;16.80;;;-3.80;96.30;;;;;;4992852;28;20562;-78
2022/11/29 06:54:34;;;;;;;29.42;16.27;;;-3.80;96.30;;;;;;4993999;28;20035;-79
2022/11/29 06:57:34;;;;;;;29.65;16.83;;;-3.90;96.30;;;;;;4996075;28;20361;-79
2022/11/29 07:00:13;;;;;;;24.15;17.50;;;-3.90;96.30;;;;;;4983947;28;20023;-79
2022/11/29 07:03:12;;;;;;;28.58;16.27;;;-3.90;96.30;;;;;;4993096;28;20033;-80
2022/11/29 07:05:39;;;;;;;26.23;15.40;;;-3.90;96.50;;;;;;4999053;28;20022;-79
2022/11/29 07:08:20;;;;;;;34.15;17.90;;;-3.90;96.10;;;;;;4999012;28;20068;-80
2022/11/29 07:10:48;;;;;;;28.08;16.88;;;-3.90;95.90;;;;;;4999598;28;20022;-81
2022/11/29 07:13:16;;;;;;;27.65;16.20;;;-4.00;95.50;;;;;;4985172;28;20034;-80
2022/11/29 07:16:06;;;;;;;29.42;21.90;;;-4.10;95.40;;;;;;4999634;28;20037;-79
2022/11/29 07:19:09;;;;;;;22.45;11.48;;;-4.20;95.30;;;;;;4994177;28;20054;-79
2022/11/29 07:21:44;;;;;;;26.65;15.40;;;-4.40;95.00;;;;;;4989348;28;20041;-80
2022/11/29 07:24:35;;;;;;;26.60;16.52;;;-4.50;95.20;;;;;;4996959;28;20129;-81
2022/11/29 07:27:09;;;;;;;28.58;17.77;;;-4.50;95.50;;;;;;4996825;28;20084;-79
2022/11/29 07:30:10;;;;;;;27.50;17.48;;;-4.50;95.20;;;;;;4997314;28;20034;-80
2022/11/29 07:33:03;;;;;;;33.53;20.75;;;-4.30;95.50;;;;;;4999626;28;20380;-79
2022/11/29 07:35:48;;;;;;;33.17;21.83;;;-4.20;95.40;;;;;;4999273;28;20030;-79
2022/11/29 07:38:45;;;;;;;34.47;21.58;;;-4.20;95.20;;;;;;4994949;28;20026;-78
2022/11/29 07:41:36;;;;;;;30.70;19.35;;;-4.30;95.10;;;;;;4987204;28;20018;-80
2022/11/29 07:44:20;;;;;;;36.92;18.73;;;-4.40;95.00;;;;;;4994857;28;20031;-79
2022/11/29 07:46:46;;;;;;;36.70;24.55;;;-4.50;95.20;;;;;;4998322;28;20018;-79
2022/11/29 07:49:21;;;;;;;36.72;21.85;;;-4.50;95.40;;;;;;4999220;28;20409;-81
2022/11/29 07:51:47;;;;;;;32.33;19.70;;;-4.50;95.50;;;;;;4982658;28;20046;-80
2022/11/29 07:54:18;;;;;;;30.98;18.48;;;-4.40;95.40;;;;;;4996901;28;20053;-80
2022/11/29 07:56:44;;;;;;;36.33;18.30;;;-4.40;95.40;;;;;;5002773;28;20050;-80
2022/11/29 07:59:13;;;;;;;32.30;18.40;;;-4.40;95.40;;;;;;4998560;28;20068;-79
2022/11/29 08:01:40;;;;;;;29.42;19.10;;;-4.50;95.20;;;;;;4998838;28;20046;-79
2022/11/29 08:04:07;;;;;;;31.45;20.17;;;-4.40;95.40;;;;;;5000095;28;20030;-80
2022/11/29 08:06:33;;;;;;;29.42;17.33;;;-4.30;95.50;;;;;;4999057;28;20361;-82
2022/11/29 08:09:06;;;;;;;30.60;18.42;;;-4.30;95.20;;;;;;4998591;28;20026;-80
2022/11/29 08:11:43;;;;;;;34.67;18.70;;;-4.30;94.90;;;;;;4999583;28;20034;-82
2022/11/29 08:14:20;;;;;;;36.90;20.90;;;-4.40;94.90;;;;;;4996473;28;21350;-79
2022/11/29 08:16:46;;;;;;;30.05;18.00;;;-4.30;95.00;;;;;;4994941;28;20026;-79
2022/11/29 08:19:12;;;;;;;32.13;20.73;;;-4.30;94.90;;;;;;4996646;28;20026;-79
2022/11/29 08:21:38;;;;;;;30.77;19.23;;;-4.30;95.00;;;;;;4995967;28;20480;-79
2022/11/29 08:24:04;;;;;;;35.90;23.52;;;-4.20;95.10;;;;;;4996187;28;20026;-76
2022/11/29 08:26:30;;;;;;;35.22;22.58;;;-4.20;95.00;;;;;;4997436;28;20432;-79
2022/11/29 08:28:55;;;;;;;34.97;23.60;;;-4.10;95.10;;;;;;4998412;28;20082;-78
2022/11/29 08:31:21;;;;;;;39.05;21.73;;;-4.00;95.00;;;;;;4996578;28;20026;-80
2022/11/29 08:33:47;;;;;;;35.08;21.10;;;-4.00;94.90;;;;;;4993537;28;20078;-80
2022/11/29 08:36:16;;;;;;;33.05;19.60;;;-4.00;94.80;;;;;;4994421;28;20022;-80
2022/11/29 08:38:42;;;;;;;32.92;22.48;;;-4.00;94.90;;;;;;4994304;28;20452;-78
2022/11/29 08:41:10;;;;;;;36.50;21.13;;;-4.00;94.90;;;;;;4986338;28;20583;-80
2022/11/29 08:44:11;;;;;;;36.95;21.15;;;-3.90;95.00;;;;;;4995433;28;20057;-81
2022/11/29 08:49:20;;;;;;;27.70;16.98;;;-3.80;94.90;;;;;;4993279;28;20033;-85
2022/11/29 08:51:46;;;;;;;28.98;17.35;;;-3.80;94.80;;;;;;4976547;28;20476;-85
2022/11/29 08:54:12;;;;;;;30.27;17.50;;;-3.70;94.90;;;;;;4991653;28;20052;-84
2022/11/29 08:56:38;;;;;;;30.27;17.40;;;-3.70;94.90;;;;;;5007333;28;20057;-82
2022/11/29 08:59:06;;;;;;;27.45;17.23;;;-3.70;94.60;;;;;;4999383;28;20030;-82
2022/11/29 09:01:32;;;;;;;24.88;15.88;;;-3.70;94.70;;;;;;4994848;28;20511;-85
2022/11/29 09:03:58;;;;;;;34.70;20.38;;;-3.60;94.80;;;;;;4998673;28;20030;-82
2022/11/29 09:06:26;;;;;;;27.80;16.85;;;-3.70;94.40;;;;;;4996507;28;20018;-83
2022/11/29 09:08:55;;;;;;;29.13;19.10;;;-3.60;94.50;;;;;;4995673;28;20054;-83
2022/11/29 09:11:23;;;;;;;30.63;18.77;;;-3.60;94.40;;;;;;4995902;28;20565;-83
2022/11/29 09:13:52;;;;;;;24.65;16.73;;;-3.50;94.40;;;;;;4995573;28;20507;-84
2022/11/29 09:16:25;;;;;;;24.70;18.10;;;-3.50;93.80;;;;;;4986842;28;20117;-88
2022/11/29 09:18:53;;;;;;;32.05;18.60;;;-3.40;94.00;;;;;;4994118;28;20081;-82
2022/11/29 09:21:19;;;;;;;31.77;18.80;;;-3.40;94.00;;;;;;4992440;28;20205;-80
2022/11/29 09:23:45;;;;;;;27.17;17.50;;;-3.40;94.00;;;;;;4992089;28;20117;-81
2022/11/29 09:26:16;;;;;;;23.50;14.13;;;-3.40;94.00;;;;;;4991633;28;20150;-82
2022/11/29 09:28:42;;;;;;;24.65;15.07;;;-3.40;93.80;;;;;;4992731;28;20100;-82
2022/11/29 09:31:13;;;;;;;26.27;15.23;;;-3.40;93.70;;;;;;4994219;28;20014;-82
2022/11/29 09:33:39;;;;;;;28.52;14.30;;;-3.50;93.40;;;;;;4993522;28;20035;-81
2022/11/29 09:36:08;;;;;;;24.70;15.38;;;-3.60;93.60;;;;;;4993603;28;20026;-82
2022/11/29 09:38:35;;;;;;;27.08;15.65;;;-3.60;93.70;;;;;;4993250;28;20030;-81
2022/11/29 09:41:38;;;;;;;22.35;15.70;;;-3.50;93.80;;;;;;4989218;28;20029;-81
2022/11/29 09:44:39;;;;;;;27.40;17.02;;;-3.40;93.70;;;;;;4990814;28;20121;-82
2022/11/29 09:47:22;;;;;;;24.05;15.88;;;-3.30;93.60;;;;;;4993906;28;21833;-80
2022/11/29 09:49:50;;;;;;;20.75;13.93;;;-3.20;93.50;;;;;;4993949;28;20030;-80
2022/11/29 09:52:35;;;;;;;26.38;16.10;;;-3.20;93.30;;;;;;4993504;28;20062;-82
2022/11/29 09:55:11;;;;;;;26.60;16.08;;;-3.10;93.30;;;;;;4993636;28;20042;-79
2022/11/29 09:57:38;;;;;;;27.33;16.90;;;-3.10;93.10;;;;;;4991994;28;20480;-78
2022/11/29 10:00:16;;;;;;;26.38;16.50;;;-3.10;93.10;;;;;;4993814;28;20022;-79
2022/11/29 10:02:52;;;;;;;24.35;15.32;;;-2.90;93.30;;;;;;4988131;28;20026;-81
2022/11/29 10:05:36;;;;;;;27.83;16.60;;;-2.70;93.10;;;;;;4993991;28;20108;-80
2022/11/29 10:08:18;;;;;;;19.85;12.43;;;-2.50;92.80;;;;;;4994334;28;20026;-80
2022/11/29 10:10:47;;;;;;;19.75;13.43;;;-2.40;92.30;;;;;;4980436;28;20647;-79
2022/11/29 10:13:17;;;;;;;19.17;13.30;;;-2.50;92.00;;;;;;4992926;28;20092;-78
2022/11/29 10:15:45;;;;;;;21.92;12.75;;;-2.70;91.50;;;;;;4993544;28;20022;-78
2022/11/29 10:18:35;;;;;;;20.70;13.63;;;-2.90;91.60;;;;;;4967303;28;20519;-79
2022/11/29 10:21:16;;;;;;;27.17;16.95;;;-3.00;91.70;;;;;;4990483;28;20097;-78
2022/11/29 10:23:56;;;;;;;30.00;18.42;;;-3.10;91.70;;;;;;4998161;28;20093;-80
2022/11/29 10:26:23;;;;;;;23.48;15.95;;;-3.10;91.90;;;;;;4996658;28;20524;-79
2022/11/29 10:28:50;;;;;;;23.00;15.35;;;-3.10;92.00;;;;;;4992870;28;20018;-81
2022/11/29 10:31:27;;;;;;;22.60;16.70;;;-3.10;92.00;;;;;;4991639;28;20037;-80
2022/11/29 10:33:54;;;;;;;29.55;17.75;;;-3.20;92.10;;;;;;4994414;28;20041;-80
2022/11/29 10:36:42;;;;;;;25.00;18.83;;;-3.20;92.10;;;;;;4997458;28;20026;-80
2022/11/29 10:39:42;;;;;;;28.30;15.82;;;-3.30;92.10;;;;;;4997214;28;20051;-80
2022/11/29 10:45:10;;;;;;;26.95;16.98;;;-3.30;92.30;;;;;;4993576;28;20167;-83
2022/11/29 10:47:36;;;;;;;23.20;15.55;;;-3.40;92.30;;;;;;4994761;28;20032;-82
2022/11/29 10:50:02;;;;;;;24.42;14.43;;;-3.50;92.10;;;;;;4998365;28;20065;-80
2022/11/29 10:52:27;;;;;;;27.88;18.88;;;-3.60;92.30;;;;;;4993742;28;20480;-80
2022/11/29 10:54:57;;;;;;;28.55;17.40;;;-3.90;92.50;;;;;;4995384;28;20034;-79
2022/11/29 10:57:23;;;;;;;25.85;14.77;;;-3.90;92.80;;;;;;4991105;28;20033;-80
2022/11/29 10:59:58;;;;;;;35.97;19.17;;;-3.90;93.00;;;;;;4994250;28;20029;-81
2022/11/29 11:02:24;;;;;;;29.52;17.73;;;-3.90;93.10;;;;;;4993808;28;20380;-80
2022/11/29 11:04:50;;;;;;;32.15;18.42;;;-3.80;93.20;;;;;;4993024;28;20022;-79
2022/11/29 11:07:27;;;;;;;39.38;19.73;;;-3.90;93.00;;;;;;4993561;28;20369;-79
2022/11/29 11:09:55;;;;;;;33.00;18.92;;;-4.10;93.10;;;;;;4988432;28;20030;-81
2022/11/29 11:12:37;;;;;;;25.80;15.00;;;-4.20;93.40;;;;;;4993200;28;20107;-81
2022/11/29 11:15:26;;;;;;;29.27;17.65;;;-4.20;93.50;;;;;;4975400;28;20471;-80
2022/11/29 11:18:03;;;;;;;26.25;18.08;;;-4.40;93.50;;;;;;4991801;28;20092;-81
2022/11/29 11:20:32;;;;;;;29.92;18.50;;;-4.50;93.70;;;;;;4992823;28;20113;-79
2022/11/29 11:23:18;;;;;;;27.98;17.60;;;-4.60;93.80;;;;;;4991491;28;20039;-78
2022/11/29 11:25:48;;;;;;;32.63;20.55;;;-4.70;94.00;;;;;;4985488;28;20122;-82
2022/11/29 11:28:19;;;;;;;35.13;18.50;;;-4.70;94.20;;;;;;4987831;28;20033;-80
2022/11/29 11:31:09;;;;;;;29.08;16.42;;;-4.80;94.20;;;;;;4990492;28;20030;-81
2022/11/29 11:33:37;;;;;;;39.08;19.98;;;-4.80;94.40;;;;;;4970991;28;20451;-80
2022/11/29 11:36:07;;;;;;;37.25;19.88;;;-4.80;94.50;;;;;;4993167;28;20101;-80
2022/11/29 11:38:54;;;;;;;38.05;22.92;;;-4.80;94.50;;;;;;4992955;28;20030;-79
2022/11/29 11:44:33;;;;;;;37.50;19.70;;;-4.70;94.90;;;;;;4993254;28;20032;-79
2022/11/29 11:47:00;;;;;;;30.55;17.27;;;-4.70;94.60;;;;;;4992593;28;20029;-80
2022/11/29 11:49:53;;;;;;;40.45;19.35;;;-4.80;94.50;;;;;;4995459;28;20049;-80
2022/11/29 11:52:41;;;;;;;37.00;19.20;;;-4.90;94.60;;;;;;4999111;28;20029;-80
2022/11/29 11:55:40;;;;;;;30.42;19.58;;;-5.00;94.80;;;;;;4998049;28;20129;-81
2022/11/29 11:58:12;;;;;;;34.58;20.23;;;-4.90;95.00;;;;;;4994407;28;20077;-79
2022/11/29 12:00:45;;;;;;;34.55;19.73;;;-5.00;95.00;;;;;;4992907;28;20394;-82
2022/11/29 12:03:36;;;;;;;36.35;20.90;;;-5.00;95.10;;;;;;4994072;28;20569;-79
2022/11/29 12:06:29;;;;;;;35.45;19.70;;;-5.00;95.20;;;;;;4993862;28;20027;-79
2022/11/29 12:09:12;;;;;;;34.38;19.10;;;-4.80;95.40;;;;;;4996077;28;20468;-79
2022/11/29 12:11:58;;;;;;;34.25;19.42;;;-4.80;95.40;;;;;;4991676;28;20469;-76
2022/11/29 12:15:06;;;;;;;37.60;20.30;;;-4.70;95.40;;;;;;4995104;28;20045;-81
2022/11/29 12:17:43;;;;;;;31.67;20.08;;;-4.70;95.30;;;;;;4992437;28;20492;-82
2022/11/29 12:20:14;;;;;;;31.52;18.17;;;-4.70;95.30;;;;;;5002371;28;20026;-81
2022/11/29 12:23:01;;;;;;;36.08;18.42;;;-4.70;95.20;;;;;;4996864;28;20026;-81
2022/11/29 12:25:37;;;;;;;27.13;16.65;;;-4.70;95.30;;;;;;4995441;28;20050;-81
2022/11/29 12:28:07;;;;;;;33.70;17.15;;;-4.70;95.00;;;;;;4995453;28;20101;-82
2022/11/29 12:30:51;;;;;;;32.22;16.92;;;-4.80;94.90;;;;;;4995275;28;20054;-82
2022/11/29 12:33:46;;;;;;;33.63;18.83;;;-4.80;95.00;;;;;;4992866;28;20098;-82
2022/11/29 12:36:29;;;;;;;39.10;21.58;;;-4.90;95.10;;;;;;4995297;28;20026;-83
2022/11/29 12:39:24;;;;;;;32.53;17.20;;;-4.90;95.20;;;;;;4995637;28;20109;-82
2022/11/29 12:42:08;;;;;;;32.85;19.67;;;-4.80;95.20;;;;;;4977346;28;20034;-81
2022/11/29 12:45:30;;;;;;;35.63;17.10;;;-4.80;95.20;;;;;;4983363;28;20535;-81
2022/11/29 12:48:09;;;;;;;26.13;13.93;;;-4.90;95.30;;;;;;4972464;28;20038;-81
2022/11/29 12:51:02;;;;;;;33.47;18.98;;;-4.90;95.10;;;;;;4995065;28;20022;-80
2022/11/29 12:53:37;;;;;;;33.10;17.70;;;-5.00;95.20;;;;;;4992389;28;20407;-78
2022/11/29 12:56:34;;;;;;;28.45;17.58;;;-5.00;95.30;;;;;;4995257;28;20368;-81
2022/11/29 12:59:24;;;;;;;26.10;16.83;;;-5.00;95.30;;;;;;4997116;28;20030;-81
2022/11/29 13:02:00;;;;;;;29.65;16.33;;;-5.10;95.30;;;;;;4995337;28;20037;-81
2022/11/29 13:04:43;;;;;;;31.60;16.27;;;-5.00;95.50;;;;;;4994945;28;20097;-81
2022/11/29 13:07:09;;;;;;;31.35;19.15;;;-5.10;95.30;;;;;;4993875;28;20026;-81
2022/11/29 13:10:04;;;;;;;35.10;18.60;;;-5.20;95.30;;;;;;4994871;28;20014;-79
2022/11/29 13:12:56;;;;;;;35.33;21.65;;;-5.20;95.40;;;;;;4997724;28;20034;-81
2022/11/29 13:15:39;;;;;;;37.15;17.42;;;-5.20;95.40;;;;;;4984383;28;20598;-80
2022/11/29 13:18:11;;;;;;;35.25;20.15;;;-5.30;95.40;;;;;;4995294;28;20141;-81
2022/11/29 13:21:00;;;;;;;30.98;15.52;;;-5.30;95.50;;;;;;4994640;28;20057;-81
2022/11/29 13:23:35;;;;;;;28.67;16.65;;;-5.40;95.70;;;;;;4994507;28;20047;-80
2022/11/29 13:26:08;;;;;;;27.58;15.25;;;-5.40;95.70;;;;;;4994719;28;20065;-80
2022/11/29 13:28:41;;;;;;;33.95;19.65;;;-5.50;95.80;;;;;;4993248;28;20072;-83
2022/11/29 13:31:14;;;;;;;35.63;21.77;;;-5.50;95.90;;;;;;4995503;28;20103;-82
2022/11/29 13:33:49;;;;;;;31.63;17.85;;;-5.50;96.00;;;;;;4994371;28;20030;-81